sensor_id;sensor_type;location;lat;lon;timestamp;P1;durP1;ratioP1;P2;durP2;ratioP2
18455;SDS011;9357;49.900;8.208;2023-03-05T00:01:17;22.42;;;13.50;;
18455;SDS011;9357;49.900;8.208;2023-03-05T00:02:52;20.65;;;13.98;;
18455;SDS011;9357;49.900;8.208;2023-03-05T00:04:25;22.90;;;13.52;;
18455;SDS011;9357;49.900;8.208;2023-03-05T00:05:58;21.20;;;13.32;;
18455;SDS011;9357;49.900;8.208;2023-03-05T00:07:30;23.30;;;14.05;;
18455;SDS011;9357;49.900;8.208;2023-03-05T00:09:04;21.02;;;13.80;;
18455;SDS011;9357;49.900;8.208;2023-03-05T00:10:37;22.83;;;13.73;;
18455;SDS011;9357;49.900;8.208;2023-03-05T00:12:10;23.08;;;15.05;;
18455;SDS011;9357;49.900;8.208;2023-03-05T00:13:43;27.77;;;15.32;;
18455;SDS011;9357;49.900;8.208;2023-03-05T00:15:14;22.45;;;14.93;;
18455;SDS011;9357;49.900;8.208;2023-03-05T00:16:47;23.15;;;15.27;;
18455;SDS011;9357;49.900;8.208;2023-03-05T00:18:20;23.23;;;15.15;;
18455;SDS011;9357;49.900;8.208;2023-03-05T00:19:52;25.95;;;15.70;;
18455;SDS011;9357;49.900;8.208;2023-03-05T00:21:27;25.80;;;14.85;;
18455;SDS011;9357;49.900;8.208;2023-03-05T00:23:02;23.40;;;15.38;;
18455;SDS011;9357;49.900;8.208;2023-03-05T00:24:36;24.55;;;15.68;;
18455;SDS011;9357;49.900;8.208;2023-03-05T00:26:09;27.52;;;15.80;;
18455;SDS011;9357;49.900;8.208;2023-03-05T00:27:40;23.10;;;15.82;;
18455;SDS011;9357;49.900;8.208;2023-03-05T00:29:14;23.23;;;15.68;;
18455;SDS011;9357;49.900;8.208;2023-03-05T00:30:49;25.88;;;16.35;;
18455;SDS011;9357;49.900;8.208;2023-03-05T00:32:21;25.13;;;16.00;;
18455;SDS011;9357;49.900;8.208;2023-03-05T00:33:54;27.73;;;16.25;;
18455;SDS011;9357;49.900;8.208;2023-03-05T00:35:27;25.92;;;16.67;;
18455;SDS011;9357;49.900;8.208;2023-03-05T00:37:00;22.95;;;15.60;;
18455;SDS011;9357;49.900;8.208;2023-03-05T00:38:33;24.70;;;15.95;;
18455;SDS011;9357;49.900;8.208;2023-03-05T00:40:07;24.85;;;16.02;;
18455;SDS011;9357;49.900;8.208;2023-03-05T00:41:41;27.42;;;16.58;;
18455;SDS011;9357;49.900;8.208;2023-03-05T00:43:12;27.42;;;17.10;;
18455;SDS011;9357;49.900;8.208;2023-03-05T00:44:45;26.50;;;17.08;;
18455;SDS011;9357;49.900;8.208;2023-03-05T00:46:18;26.33;;;17.73;;
18455;SDS011;9357;49.900;8.208;2023-03-05T00:47:50;27.58;;;17.77;;
18455;SDS011;9357;49.900;8.208;2023-03-05T00:49:22;26.33;;;17.23;;
18455;SDS011;9357;49.900;8.208;2023-03-05T00:50:55;25.77;;;17.42;;
18455;SDS011;9357;49.900;8.208;2023-03-05T00:52:28;25.23;;;17.13;;
18455;SDS011;9357;49.900;8.208;2023-03-05T00:54:01;27.38;;;18.27;;
18455;SDS011;9357;49.900;8.208;2023-03-05T00:55:35;26.63;;;17.27;;
18455;SDS011;9357;49.900;8.208;2023-03-05T00:57:08;29.00;;;17.13;;
18455;SDS011;9357;49.900;8.208;2023-03-05T00:58:41;25.00;;;16.65;;
18455;SDS011;9357;49.900;8.208;2023-03-05T01:00:14;26.48;;;17.30;;
18455;SDS011;9357;49.900;8.208;2023-03-05T01:01:47;27.40;;;16.83;;
18455;SDS011;9357;49.900;8.208;2023-03-05T01:03:20;25.63;;;17.08;;
18455;SDS011;9357;49.900;8.208;2023-03-05T01:04:53;27.30;;;17.77;;
18455;SDS011;9357;49.900;8.208;2023-03-05T01:06:26;30.80;;;18.33;;
18455;SDS011;9357;49.900;8.208;2023-03-05T01:07:59;26.35;;;17.55;;
18455;SDS011;9357;49.900;8.208;2023-03-05T01:09:32;30.00;;;17.85;;
18455;SDS011;9357;49.900;8.208;2023-03-05T01:11:06;30.45;;;18.52;;
18455;SDS011;9357;49.900;8.208;2023-03-05T01:12:39;31.60;;;18.83;;
18455;SDS011;9357;49.900;8.208;2023-03-05T01:14:11;32.83;;;18.00;;
18455;SDS011;9357;49.900;8.208;2023-03-05T01:15:44;29.60;;;18.33;;
18455;SDS011;9357;49.900;8.208;2023-03-05T01:17:17;32.10;;;19.23;;
18455;SDS011;9357;49.900;8.208;2023-03-05T01:18:50;29.95;;;18.33;;
18455;SDS011;9357;49.900;8.208;2023-03-05T01:20:23;32.38;;;17.95;;
18455;SDS011;9357;49.900;8.208;2023-03-05T01:21:56;27.80;;;18.05;;
18455;SDS011;9357;49.900;8.208;2023-03-05T01:23:28;29.55;;;18.60;;
18455;SDS011;9357;49.900;8.208;2023-03-05T01:25:01;30.48;;;18.35;;
18455;SDS011;9357;49.900;8.208;2023-03-05T01:26:35;30.65;;;19.27;;
18455;SDS011;9357;49.900;8.208;2023-03-05T01:28:08;26.90;;;17.58;;
18455;SDS011;9357;49.900;8.208;2023-03-05T01:29:41;30.42;;;18.58;;
18455;SDS011;9357;49.900;8.208;2023-03-05T01:31:13;30.08;;;18.50;;
18455;SDS011;9357;49.900;8.208;2023-03-05T01:32:46;29.35;;;17.77;;
18455;SDS011;9357;49.900;8.208;2023-03-05T01:34:18;34.70;;;18.02;;
18455;SDS011;9357;49.900;8.208;2023-03-05T01:35:51;30.95;;;18.33;;
18455;SDS011;9357;49.900;8.208;2023-03-05T01:37:24;27.02;;;17.63;;
18455;SDS011;9357;49.900;8.208;2023-03-05T01:38:56;28.30;;;17.73;;
18455;SDS011;9357;49.900;8.208;2023-03-05T01:40:29;29.55;;;18.13;;
18455;SDS011;9357;49.900;8.208;2023-03-05T01:42:03;29.13;;;17.45;;
18455;SDS011;9357;49.900;8.208;2023-03-05T01:43:36;28.58;;;17.52;;
18455;SDS011;9357;49.900;8.208;2023-03-05T01:45:10;27.25;;;17.80;;
18455;SDS011;9357;49.900;8.208;2023-03-05T01:46:43;30.77;;;17.98;;
18455;SDS011;9357;49.900;8.208;2023-03-05T01:48:16;28.13;;;18.27;;
18455;SDS011;9357;49.900;8.208;2023-03-05T01:49:49;30.42;;;18.42;;
18455;SDS011;9357;49.900;8.208;2023-03-05T01:51:23;30.55;;;17.02;;
18455;SDS011;9357;49.900;8.208;2023-03-05T01:52:59;29.10;;;17.60;;
18455;SDS011;9357;49.900;8.208;2023-03-05T01:54:35;30.80;;;17.40;;
18455;SDS011;9357;49.900;8.208;2023-03-05T01:56:11;30.40;;;17.45;;
18455;SDS011;9357;49.900;8.208;2023-03-05T01:57:45;30.02;;;17.38;;
18455;SDS011;9357;49.900;8.208;2023-03-05T01:59:21;30.48;;;17.52;;
18455;SDS011;9357;49.900;8.208;2023-03-05T02:00:55;28.95;;;18.35;;
18455;SDS011;9357;49.900;8.208;2023-03-05T02:02:28;31.77;;;17.95;;
18455;SDS011;9357;49.900;8.208;2023-03-05T02:04:01;27.85;;;17.20;;
18455;SDS011;9357;49.900;8.208;2023-03-05T02:05:34;30.23;;;18.05;;
18455;SDS011;9357;49.900;8.208;2023-03-05T02:07:09;28.48;;;16.80;;
18455;SDS011;9357;49.900;8.208;2023-03-05T02:08:42;28.05;;;17.17;;
18455;SDS011;9357;49.900;8.208;2023-03-05T02:10:15;26.92;;;16.75;;
18455;SDS011;9357;49.900;8.208;2023-03-05T02:11:49;26.35;;;16.08;;
18455;SDS011;9357;49.900;8.208;2023-03-05T02:13:25;28.00;;;16.52;;
18455;SDS011;9357;49.900;8.208;2023-03-05T02:15:01;28.30;;;16.15;;
18455;SDS011;9357;49.900;8.208;2023-03-05T02:16:34;27.05;;;16.65;;
18455;SDS011;9357;49.900;8.208;2023-03-05T02:18:08;26.55;;;16.73;;
18455;SDS011;9357;49.900;8.208;2023-03-05T02:19:45;29.77;;;17.25;;
18455;SDS011;9357;49.900;8.208;2023-03-05T02:21:26;32.53;;;17.33;;
18455;SDS011;9357;49.900;8.208;2023-03-05T02:23:06;27.25;;;16.80;;
18455;SDS011;9357;49.900;8.208;2023-03-05T02:24:39;29.95;;;18.05;;
18455;SDS011;9357;49.900;8.208;2023-03-05T02:26:12;31.17;;;18.08;;
18455;SDS011;9357;49.900;8.208;2023-03-05T02:27:46;26.67;;;16.77;;
18455;SDS011;9357;49.900;8.208;2023-03-05T02:29:22;27.42;;;16.83;;
18455;SDS011;9357;49.900;8.208;2023-03-05T02:30:56;28.90;;;17.48;;
18455;SDS011;9357;49.900;8.208;2023-03-05T02:32:28;27.90;;;16.15;;
18455;SDS011;9357;49.900;8.208;2023-03-05T02:34:00;29.63;;;17.00;;
18455;SDS011;9357;49.900;8.208;2023-03-05T02:35:33;30.33;;;17.77;;
18455;SDS011;9357;49.900;8.208;2023-03-05T02:37:07;28.60;;;17.48;;
18455;SDS011;9357;49.900;8.208;2023-03-05T02:38:40;24.80;;;16.27;;
18455;SDS011;9357;49.900;8.208;2023-03-05T02:40:14;26.10;;;16.77;;
18455;SDS011;9357;49.900;8.208;2023-03-05T02:41:47;28.17;;;17.00;;
18455;SDS011;9357;49.900;8.208;2023-03-05T02:43:20;26.83;;;16.08;;
18455;SDS011;9357;49.900;8.208;2023-03-05T02:44:52;25.65;;;16.02;;
18455;SDS011;9357;49.900;8.208;2023-03-05T02:46:24;27.73;;;15.68;;
18455;SDS011;9357;49.900;8.208;2023-03-05T02:47:57;28.60;;;16.33;;
18455;SDS011;9357;49.900;8.208;2023-03-05T02:49:30;26.60;;;14.85;;
18455;SDS011;9357;49.900;8.208;2023-03-05T02:51:03;23.00;;;15.05;;
18455;SDS011;9357;49.900;8.208;2023-03-05T02:52:39;23.05;;;14.65;;
18455;SDS011;9357;49.900;8.208;2023-03-05T02:54:11;25.15;;;15.82;;
18455;SDS011;9357;49.900;8.208;2023-03-05T02:55:45;22.80;;;15.35;;
18455;SDS011;9357;49.900;8.208;2023-03-05T02:57:17;23.58;;;15.18;;
18455;SDS011;9357;49.900;8.208;2023-03-05T02:58:50;24.20;;;15.40;;
18455;SDS011;9357;49.900;8.208;2023-03-05T03:00:23;26.10;;;15.55;;
18455;SDS011;9357;49.900;8.208;2023-03-05T03:01:56;25.60;;;15.20;;
18455;SDS011;9357;49.900;8.208;2023-03-05T03:03:29;28.52;;;15.48;;
18455;SDS011;9357;49.900;8.208;2023-03-05T03:05:01;26.02;;;16.00;;
18455;SDS011;9357;49.900;8.208;2023-03-05T03:06:34;28.98;;;16.50;;
18455;SDS011;9357;49.900;8.208;2023-03-05T03:08:08;25.88;;;15.63;;
18455;SDS011;9357;49.900;8.208;2023-03-05T03:09:41;26.30;;;16.17;;
18455;SDS011;9357;49.900;8.208;2023-03-05T03:11:14;29.98;;;16.77;;
18455;SDS011;9357;49.900;8.208;2023-03-05T03:12:46;26.77;;;15.27;;
18455;SDS011;9357;49.900;8.208;2023-03-05T03:14:18;29.67;;;16.85;;
18455;SDS011;9357;49.900;8.208;2023-03-05T03:16:00;29.50;;;16.58;;
18455;SDS011;9357;49.900;8.208;2023-03-05T03:17:33;28.45;;;16.42;;
18455;SDS011;9357;49.900;8.208;2023-03-05T03:19:06;28.50;;;16.60;;
18455;SDS011;9357;49.900;8.208;2023-03-05T03:20:39;27.85;;;16.48;;
18455;SDS011;9357;49.900;8.208;2023-03-05T03:22:13;24.55;;;15.85;;
18455;SDS011;9357;49.900;8.208;2023-03-05T03:23:48;26.30;;;16.42;;
18455;SDS011;9357;49.900;8.208;2023-03-05T03:25:21;27.10;;;15.88;;
18455;SDS011;9357;49.900;8.208;2023-03-05T03:26:53;25.52;;;15.35;;
18455;SDS011;9357;49.900;8.208;2023-03-05T03:28:26;26.92;;;16.00;;
18455;SDS011;9357;49.900;8.208;2023-03-05T03:29:58;27.40;;;15.77;;
18455;SDS011;9357;49.900;8.208;2023-03-05T03:31:34;29.55;;;15.45;;
18455;SDS011;9357;49.900;8.208;2023-03-05T03:33:10;26.50;;;15.38;;
18455;SDS011;9357;49.900;8.208;2023-03-05T03:34:43;32.08;;;16.67;;
18455;SDS011;9357;49.900;8.208;2023-03-05T03:36:15;27.67;;;15.82;;
18455;SDS011;9357;49.900;8.208;2023-03-05T03:37:47;26.30;;;16.02;;
18455;SDS011;9357;49.900;8.208;2023-03-05T03:39:21;29.08;;;15.95;;
18455;SDS011;9357;49.900;8.208;2023-03-05T03:40:55;25.92;;;15.95;;
18455;SDS011;9357;49.900;8.208;2023-03-05T03:42:28;26.88;;;15.15;;
18455;SDS011;9357;49.900;8.208;2023-03-05T03:44:01;25.40;;;14.93;;
18455;SDS011;9357;49.900;8.208;2023-03-05T03:45:38;29.10;;;15.60;;
18455;SDS011;9357;49.900;8.208;2023-03-05T03:47:11;26.05;;;14.70;;
18455;SDS011;9357;49.900;8.208;2023-03-05T03:48:44;24.30;;;15.00;;
18455;SDS011;9357;49.900;8.208;2023-03-05T03:50:21;29.80;;;16.33;;
18455;SDS011;9357;49.900;8.208;2023-03-05T03:51:55;27.42;;;15.38;;
18455;SDS011;9357;49.900;8.208;2023-03-05T03:53:28;28.85;;;15.63;;
18455;SDS011;9357;49.900;8.208;2023-03-05T03:55:02;28.25;;;16.05;;
18455;SDS011;9357;49.900;8.208;2023-03-05T03:56:34;27.77;;;14.93;;
18455;SDS011;9357;49.900;8.208;2023-03-05T03:58:07;25.35;;;14.32;;
18455;SDS011;9357;49.900;8.208;2023-03-05T03:59:40;26.98;;;15.07;;
18455;SDS011;9357;49.900;8.208;2023-03-05T04:01:15;27.70;;;15.30;;
18455;SDS011;9357;49.900;8.208;2023-03-05T04:02:48;26.48;;;14.68;;
18455;SDS011;9357;49.900;8.208;2023-03-05T04:04:20;25.20;;;14.55;;
18455;SDS011;9357;49.900;8.208;2023-03-05T04:05:52;26.33;;;14.70;;
18455;SDS011;9357;49.900;8.208;2023-03-05T04:07:25;27.42;;;14.68;;
18455;SDS011;9357;49.900;8.208;2023-03-05T04:08:58;27.15;;;14.98;;
18455;SDS011;9357;49.900;8.208;2023-03-05T04:10:32;31.75;;;15.30;;
18455;SDS011;9357;49.900;8.208;2023-03-05T04:12:05;29.27;;;14.95;;
18455;SDS011;9357;49.900;8.208;2023-03-05T04:13:38;25.80;;;14.80;;
18455;SDS011;9357;49.900;8.208;2023-03-05T04:15:11;29.67;;;15.48;;
18455;SDS011;9357;49.900;8.208;2023-03-05T04:16:44;26.13;;;14.80;;
18455;SDS011;9357;49.900;8.208;2023-03-05T04:18:16;29.00;;;15.38;;
18455;SDS011;9357;49.900;8.208;2023-03-05T04:19:50;28.77;;;15.48;;
18455;SDS011;9357;49.900;8.208;2023-03-05T04:21:23;29.88;;;15.07;;
18455;SDS011;9357;49.900;8.208;2023-03-05T04:22:56;26.27;;;14.20;;
18455;SDS011;9357;49.900;8.208;2023-03-05T04:24:28;26.02;;;15.05;;
18455;SDS011;9357;49.900;8.208;2023-03-05T04:26:02;28.63;;;15.50;;
18455;SDS011;9357;49.900;8.208;2023-03-05T04:27:35;34.03;;;15.98;;
18455;SDS011;9357;49.900;8.208;2023-03-05T04:29:10;30.55;;;14.18;;
18455;SDS011;9357;49.900;8.208;2023-03-05T04:30:42;27.10;;;14.02;;
18455;SDS011;9357;49.900;8.208;2023-03-05T04:32:15;26.13;;;13.55;;
18455;SDS011;9357;49.900;8.208;2023-03-05T04:33:53;28.75;;;14.73;;
18455;SDS011;9357;49.900;8.208;2023-03-05T04:35:26;26.70;;;13.82;;
18455;SDS011;9357;49.900;8.208;2023-03-05T04:36:58;28.80;;;13.60;;
18455;SDS011;9357;49.900;8.208;2023-03-05T04:38:31;29.00;;;14.43;;
18455;SDS011;9357;49.900;8.208;2023-03-05T04:40:04;27.00;;;14.35;;
18455;SDS011;9357;49.900;8.208;2023-03-05T04:41:38;25.38;;;14.27;;
18455;SDS011;9357;49.900;8.208;2023-03-05T04:43:11;24.90;;;13.48;;
18455;SDS011;9357;49.900;8.208;2023-03-05T04:44:44;28.05;;;14.15;;
18455;SDS011;9357;49.900;8.208;2023-03-05T04:46:16;27.15;;;14.25;;
18455;SDS011;9357;49.900;8.208;2023-03-05T04:47:49;27.95;;;15.32;;
18455;SDS011;9357;49.900;8.208;2023-03-05T04:49:22;27.77;;;13.55;;
18455;SDS011;9357;49.900;8.208;2023-03-05T04:50:55;26.52;;;13.45;;
18455;SDS011;9357;49.900;8.208;2023-03-05T04:52:28;26.85;;;13.32;;
18455;SDS011;9357;49.900;8.208;2023-03-05T04:54:01;24.48;;;12.55;;
18455;SDS011;9357;49.900;8.208;2023-03-05T04:55:34;23.48;;;12.35;;
18455;SDS011;9357;49.900;8.208;2023-03-05T04:57:08;22.23;;;11.90;;
18455;SDS011;9357;49.900;8.208;2023-03-05T04:58:41;21.88;;;12.32;;
18455;SDS011;9357;49.900;8.208;2023-03-05T05:00:14;25.10;;;11.93;;
18455;SDS011;9357;49.900;8.208;2023-03-05T05:01:48;22.73;;;12.02;;
18455;SDS011;9357;49.900;8.208;2023-03-05T05:03:20;22.85;;;11.80;;
18455;SDS011;9357;49.900;8.208;2023-03-05T05:04:52;25.10;;;11.95;;
18455;SDS011;9357;49.900;8.208;2023-03-05T05:06:24;21.45;;;11.75;;
18455;SDS011;9357;49.900;8.208;2023-03-05T05:07:57;23.40;;;12.02;;
18455;SDS011;9357;49.900;8.208;2023-03-05T05:09:29;28.05;;;12.25;;
18455;SDS011;9357;49.900;8.208;2023-03-05T05:11:02;23.65;;;11.90;;
18455;SDS011;9357;49.900;8.208;2023-03-05T05:12:38;23.67;;;12.13;;
18455;SDS011;9357;49.900;8.208;2023-03-05T05:14:11;21.63;;;12.38;;
18455;SDS011;9357;49.900;8.208;2023-03-05T05:15:44;25.98;;;12.35;;
18455;SDS011;9357;49.900;8.208;2023-03-05T05:17:16;21.67;;;11.70;;
18455;SDS011;9357;49.900;8.208;2023-03-05T05:18:48;22.65;;;11.77;;
18455;SDS011;9357;49.900;8.208;2023-03-05T05:20:21;21.35;;;11.00;;
18455;SDS011;9357;49.900;8.208;2023-03-05T05:21:54;22.40;;;12.32;;
18455;SDS011;9357;49.900;8.208;2023-03-05T05:23:27;22.33;;;10.98;;
18455;SDS011;9357;49.900;8.208;2023-03-05T05:24:59;19.15;;;11.27;;
18455;SDS011;9357;49.900;8.208;2023-03-05T05:26:33;19.92;;;10.57;;
18455;SDS011;9357;49.900;8.208;2023-03-05T05:28:07;23.02;;;11.65;;
18455;SDS011;9357;49.900;8.208;2023-03-05T05:29:40;20.95;;;11.18;;
18455;SDS011;9357;49.900;8.208;2023-03-05T05:31:15;23.80;;;11.05;;
18455;SDS011;9357;49.900;8.208;2023-03-05T05:32:49;19.77;;;10.88;;
18455;SDS011;9357;49.900;8.208;2023-03-05T05:34:20;20.38;;;10.75;;
18455;SDS011;9357;49.900;8.208;2023-03-05T05:35:55;19.65;;;10.43;;
18455;SDS011;9357;49.900;8.208;2023-03-05T05:37:28;19.75;;;10.48;;
18455;SDS011;9357;49.900;8.208;2023-03-05T05:39:00;21.38;;;10.80;;
18455;SDS011;9357;49.900;8.208;2023-03-05T05:40:32;17.42;;;10.38;;
18455;SDS011;9357;49.900;8.208;2023-03-05T05:42:04;25.90;;;11.40;;
18455;SDS011;9357;49.900;8.208;2023-03-05T05:43:39;22.42;;;11.13;;
18455;SDS011;9357;49.900;8.208;2023-03-05T05:45:11;20.73;;;10.88;;
18455;SDS011;9357;49.900;8.208;2023-03-05T05:46:44;20.80;;;11.38;;
18455;SDS011;9357;49.900;8.208;2023-03-05T05:48:17;21.90;;;10.63;;
18455;SDS011;9357;49.900;8.208;2023-03-05T05:49:49;21.23;;;11.10;;
18455;SDS011;9357;49.900;8.208;2023-03-05T05:51:22;23.95;;;11.48;;
18455;SDS011;9357;49.900;8.208;2023-03-05T05:52:54;22.65;;;11.38;;
18455;SDS011;9357;49.900;8.208;2023-03-05T05:54:27;26.30;;;11.40;;
18455;SDS011;9357;49.900;8.208;2023-03-05T05:56:00;18.17;;;10.70;;
18455;SDS011;9357;49.900;8.208;2023-03-05T05:57:34;22.63;;;11.32;;
18455;SDS011;9357;49.900;8.208;2023-03-05T05:59:09;19.75;;;10.82;;
18455;SDS011;9357;49.900;8.208;2023-03-05T06:00:42;16.35;;;10.25;;
18455;SDS011;9357;49.900;8.208;2023-03-05T06:02:14;19.60;;;10.32;;
18455;SDS011;9357;49.900;8.208;2023-03-05T06:03:47;18.65;;;10.05;;
18455;SDS011;9357;49.900;8.208;2023-03-05T06:05:20;17.25;;;10.05;;
18455;SDS011;9357;49.900;8.208;2023-03-05T06:06:53;18.85;;;9.75;;
18455;SDS011;9357;49.900;8.208;2023-03-05T06:08:26;23.48;;;10.80;;
18455;SDS011;9357;49.900;8.208;2023-03-05T06:09:58;20.27;;;10.55;;
18455;SDS011;9357;49.900;8.208;2023-03-05T06:11:31;19.35;;;10.20;;
18455;SDS011;9357;49.900;8.208;2023-03-05T06:13:04;21.95;;;10.98;;
18455;SDS011;9357;49.900;8.208;2023-03-05T06:14:38;19.05;;;10.73;;
18455;SDS011;9357;49.900;8.208;2023-03-05T06:16:11;19.75;;;10.45;;
18455;SDS011;9357;49.900;8.208;2023-03-05T06:17:45;18.77;;;10.07;;
18455;SDS011;9357;49.900;8.208;2023-03-05T06:19:18;20.02;;;10.07;;
18455;SDS011;9357;49.900;8.208;2023-03-05T06:20:53;21.60;;;10.50;;
18455;SDS011;9357;49.900;8.208;2023-03-05T06:22:27;19.73;;;10.23;;
18455;SDS011;9357;49.900;8.208;2023-03-05T06:23:59;19.33;;;10.13;;
18455;SDS011;9357;49.900;8.208;2023-03-05T06:25:32;21.40;;;10.30;;
18455;SDS011;9357;49.900;8.208;2023-03-05T06:27:05;18.63;;;10.45;;
18455;SDS011;9357;49.900;8.208;2023-03-05T06:28:38;17.20;;;10.48;;
18455;SDS011;9357;49.900;8.208;2023-03-05T06:30:12;20.40;;;10.48;;
18455;SDS011;9357;49.900;8.208;2023-03-05T06:31:45;17.67;;;9.65;;
18455;SDS011;9357;49.900;8.208;2023-03-05T06:33:17;16.55;;;9.93;;
18455;SDS011;9357;49.900;8.208;2023-03-05T06:34:50;16.83;;;9.02;;
18455;SDS011;9357;49.900;8.208;2023-03-05T06:36:23;19.80;;;10.00;;
18455;SDS011;9357;49.900;8.208;2023-03-05T06:37:56;19.92;;;11.98;;
18455;SDS011;9357;49.900;8.208;2023-03-05T06:39:29;17.50;;;10.15;;
18455;SDS011;9357;49.900;8.208;2023-03-05T06:41:03;16.88;;;9.95;;
18455;SDS011;9357;49.900;8.208;2023-03-05T06:42:41;16.55;;;9.45;;
18455;SDS011;9357;49.900;8.208;2023-03-05T06:44:14;21.70;;;10.15;;
18455;SDS011;9357;49.900;8.208;2023-03-05T06:45:48;16.33;;;10.02;;
18455;SDS011;9357;49.900;8.208;2023-03-05T06:47:21;20.90;;;10.43;;
18455;SDS011;9357;49.900;8.208;2023-03-05T06:48:54;16.48;;;9.70;;
18455;SDS011;9357;49.900;8.208;2023-03-05T06:50:28;23.83;;;10.68;;
18455;SDS011;9357;49.900;8.208;2023-03-05T06:52:01;18.42;;;10.18;;
18455;SDS011;9357;49.900;8.208;2023-03-05T06:53:34;20.00;;;9.70;;
18455;SDS011;9357;49.900;8.208;2023-03-05T06:55:06;23.38;;;9.90;;
18455;SDS011;9357;49.900;8.208;2023-03-05T06:56:40;17.60;;;9.35;;
18455;SDS011;9357;49.900;8.208;2023-03-05T06:58:14;18.58;;;10.05;;
18455;SDS011;9357;49.900;8.208;2023-03-05T06:59:47;17.98;;;9.60;;
18455;SDS011;9357;49.900;8.208;2023-03-05T07:01:21;16.80;;;9.35;;
18455;SDS011;9357;49.900;8.208;2023-03-05T07:02:54;17.30;;;9.10;;
18455;SDS011;9357;49.900;8.208;2023-03-05T07:04:27;16.55;;;8.93;;
18455;SDS011;9357;49.900;8.208;2023-03-05T07:06:01;16.63;;;9.18;;
18455;SDS011;9357;49.900;8.208;2023-03-05T07:07:34;18.88;;;10.10;;
18455;SDS011;9357;49.900;8.208;2023-03-05T07:09:07;17.17;;;9.68;;
18455;SDS011;9357;49.900;8.208;2023-03-05T07:10:44;16.33;;;9.25;;
18455;SDS011;9357;49.900;8.208;2023-03-05T07:12:16;22.65;;;10.75;;
18455;SDS011;9357;49.900;8.208;2023-03-05T07:13:49;22.00;;;10.38;;
18455;SDS011;9357;49.900;8.208;2023-03-05T07:15:22;16.00;;;9.02;;
18455;SDS011;9357;49.900;8.208;2023-03-05T07:16:56;15.52;;;9.20;;
18455;SDS011;9357;49.900;8.208;2023-03-05T07:18:29;17.65;;;8.80;;
18455;SDS011;9357;49.900;8.208;2023-03-05T07:20:02;17.05;;;8.88;;
18455;SDS011;9357;49.900;8.208;2023-03-05T07:21:35;17.85;;;8.90;;
18455;SDS011;9357;49.900;8.208;2023-03-05T07:23:10;17.27;;;8.80;;
18455;SDS011;9357;49.900;8.208;2023-03-05T07:24:43;14.65;;;7.88;;
18455;SDS011;9357;49.900;8.208;2023-03-05T07:26:16;15.15;;;8.27;;
18455;SDS011;9357;49.900;8.208;2023-03-05T07:27:49;14.80;;;8.50;;
18455;SDS011;9357;49.900;8.208;2023-03-05T07:29:22;14.27;;;7.95;;
18455;SDS011;9357;49.900;8.208;2023-03-05T07:30:55;16.13;;;8.40;;
18455;SDS011;9357;49.900;8.208;2023-03-05T07:32:30;14.40;;;7.63;;
18455;SDS011;9357;49.900;8.208;2023-03-05T07:34:05;14.02;;;7.30;;
18455;SDS011;9357;49.900;8.208;2023-03-05T07:35:38;17.15;;;7.95;;
18455;SDS011;9357;49.900;8.208;2023-03-05T07:37:12;14.27;;;6.90;;
18455;SDS011;9357;49.900;8.208;2023-03-05T07:38:45;12.90;;;6.65;;
18455;SDS011;9357;49.900;8.208;2023-03-05T07:40:18;12.95;;;7.03;;
18455;SDS011;9357;49.900;8.208;2023-03-05T07:41:51;12.57;;;6.78;;
18455;SDS011;9357;49.900;8.208;2023-03-05T07:43:24;14.63;;;7.85;;
18455;SDS011;9357;49.900;8.208;2023-03-05T07:44:57;12.70;;;6.75;;
18455;SDS011;9357;49.900;8.208;2023-03-05T07:46:30;16.38;;;7.90;;
18455;SDS011;9357;49.900;8.208;2023-03-05T07:48:06;14.10;;;7.20;;
18455;SDS011;9357;49.900;8.208;2023-03-05T07:49:43;10.57;;;6.72;;
18455;SDS011;9357;49.900;8.208;2023-03-05T07:51:17;13.18;;;5.93;;
18455;SDS011;9357;49.900;8.208;2023-03-05T07:52:50;13.15;;;6.00;;
18455;SDS011;9357;49.900;8.208;2023-03-05T07:54:23;11.52;;;5.18;;
18455;SDS011;9357;49.900;8.208;2023-03-05T07:55:55;15.27;;;6.85;;
18455;SDS011;9357;49.900;8.208;2023-03-05T07:57:28;11.30;;;5.47;;
18455;SDS011;9357;49.900;8.208;2023-03-05T07:59:02;8.68;;;4.90;;
18455;SDS011;9357;49.900;8.208;2023-03-05T08:00:36;8.20;;;4.72;;
18455;SDS011;9357;49.900;8.208;2023-03-05T08:02:09;10.02;;;4.50;;
18455;SDS011;9357;49.900;8.208;2023-03-05T08:03:44;7.13;;;4.38;;
18455;SDS011;9357;49.900;8.208;2023-03-05T08:05:17;9.85;;;4.68;;
18455;SDS011;9357;49.900;8.208;2023-03-05T08:06:50;9.68;;;4.70;;
18455;SDS011;9357;49.900;8.208;2023-03-05T08:08:23;9.38;;;5.15;;
18455;SDS011;9357;49.900;8.208;2023-03-05T08:09:56;9.63;;;4.40;;
18455;SDS011;9357;49.900;8.208;2023-03-05T08:11:28;8.85;;;4.07;;
18455;SDS011;9357;49.900;8.208;2023-03-05T08:13:01;8.27;;;4.55;;
18455;SDS011;9357;49.900;8.208;2023-03-05T08:14:34;9.73;;;5.97;;
18455;SDS011;9357;49.900;8.208;2023-03-05T08:16:07;11.90;;;7.32;;
18455;SDS011;9357;49.900;8.208;2023-03-05T08:17:42;11.68;;;5.75;;
18455;SDS011;9357;49.900;8.208;2023-03-05T08:19:16;13.90;;;10.23;;
18455;SDS011;9357;49.900;8.208;2023-03-05T08:20:50;10.80;;;7.07;;
18455;SDS011;9357;49.900;8.208;2023-03-05T08:22:23;10.55;;;5.10;;
18455;SDS011;9357;49.900;8.208;2023-03-05T08:23:56;10.98;;;5.82;;
18455;SDS011;9357;49.900;8.208;2023-03-05T08:25:29;9.02;;;4.35;;
18455;SDS011;9357;49.900;8.208;2023-03-05T08:27:02;13.52;;;5.28;;
18455;SDS011;9357;49.900;8.208;2023-03-05T08:28:34;10.38;;;4.90;;
18455;SDS011;9357;49.900;8.208;2023-03-05T08:30:09;7.85;;;4.50;;
18455;SDS011;9357;49.900;8.208;2023-03-05T08:31:43;9.98;;;4.93;;
18455;SDS011;9357;49.900;8.208;2023-03-05T08:33:17;9.93;;;5.03;;
18455;SDS011;9357;49.900;8.208;2023-03-05T08:34:54;11.80;;;5.20;;
18455;SDS011;9357;49.900;8.208;2023-03-05T08:36:28;13.52;;;6.15;;
18455;SDS011;9357;49.900;8.208;2023-03-05T08:38:01;9.95;;;5.60;;
18455;SDS011;9357;49.900;8.208;2023-03-05T08:39:33;10.27;;;5.32;;
18455;SDS011;9357;49.900;8.208;2023-03-05T08:41:06;11.02;;;5.32;;
18455;SDS011;9357;49.900;8.208;2023-03-05T08:42:39;10.02;;;5.20;;
18455;SDS011;9357;49.900;8.208;2023-03-05T08:44:12;10.55;;;5.82;;
18455;SDS011;9357;49.900;8.208;2023-03-05T08:45:44;11.45;;;4.95;;
18455;SDS011;9357;49.900;8.208;2023-03-05T08:47:19;11.32;;;5.03;;
18455;SDS011;9357;49.900;8.208;2023-03-05T08:48:55;11.23;;;5.28;;
18455;SDS011;9357;49.900;8.208;2023-03-05T08:50:29;11.90;;;5.53;;
18455;SDS011;9357;49.900;8.208;2023-03-05T08:52:02;12.13;;;6.35;;
18455;SDS011;9357;49.900;8.208;2023-03-05T08:53:35;15.75;;;8.60;;
18455;SDS011;9357;49.900;8.208;2023-03-05T08:55:08;14.98;;;8.18;;
18455;SDS011;9357;49.900;8.208;2023-03-05T08:56:42;12.05;;;6.88;;
18455;SDS011;9357;49.900;8.208;2023-03-05T08:58:14;10.70;;;5.95;;
18455;SDS011;9357;49.900;8.208;2023-03-05T08:59:47;10.23;;;6.30;;
18455;SDS011;9357;49.900;8.208;2023-03-05T09:01:20;11.63;;;5.78;;
18455;SDS011;9357;49.900;8.208;2023-03-05T09:02:54;13.88;;;6.25;;
18455;SDS011;9357;49.900;8.208;2023-03-05T09:04:26;12.90;;;6.32;;
18455;SDS011;9357;49.900;8.208;2023-03-05T09:06:01;11.60;;;5.97;;
18455;SDS011;9357;49.900;8.208;2023-03-05T09:07:35;12.68;;;5.75;;
18455;SDS011;9357;49.900;8.208;2023-03-05T09:09:08;10.95;;;5.82;;
18455;SDS011;9357;49.900;8.208;2023-03-05T09:10:41;11.77;;;5.93;;
18455;SDS011;9357;49.900;8.208;2023-03-05T09:12:14;12.52;;;5.90;;
18455;SDS011;9357;49.900;8.208;2023-03-05T09:13:46;12.15;;;5.22;;
18455;SDS011;9357;49.900;8.208;2023-03-05T09:15:19;14.82;;;6.57;;
18455;SDS011;9357;49.900;8.208;2023-03-05T09:16:52;12.38;;;6.40;;